createdAt,value
2018-07-04T00:01:28.481Z,15.30
2018-07-04T00:04:07.891Z,15.30
2018-07-04T00:06:47.410Z,15.20
2018-07-04T00:09:26.864Z,15.10
2018-07-04T00:12:06.235Z,15.10
2018-07-04T00:14:45.815Z,15.00
2018-07-04T00:17:25.610Z,15.00
2018-07-04T00:20:05.101Z,14.90
2018-07-04T00:22:44.880Z,14.90
2018-07-04T00:25:24.424Z,14.80
2018-07-04T00:28:04.199Z,14.70
2018-07-04T00:30:43.807Z,14.70
2018-07-04T00:33:23.441Z,14.70
2018-07-04T00:36:03.147Z,14.60
2018-07-04T00:38:42.888Z,14.50
2018-07-04T00:43:55.855Z,14.40
2018-07-04T00:46:35.354Z,14.40
2018-07-04T00:51:48.668Z,14.30
2018-07-04T00:54:28.392Z,14.30
2018-07-04T00:57:08.093Z,14.20
2018-07-04T00:59:47.791Z,14.20
2018-07-04T01:02:27.518Z,14.10
2018-07-04T01:05:07.430Z,14.00
2018-07-04T01:07:46.998Z,14.00
2018-07-04T01:10:26.562Z,13.90
2018-07-04T01:13:06.135Z,13.80
2018-07-04T01:15:45.744Z,13.80
2018-07-04T01:18:25.426Z,13.70
2018-07-04T01:21:10.457Z,13.60
2018-07-04T01:23:50.466Z,13.60
2018-07-04T01:26:30.160Z,13.60
2018-07-04T01:29:09.694Z,13.50
2018-07-04T01:31:49.462Z,13.50
2018-07-04T01:34:29.198Z,13.50
2018-07-04T01:37:09.088Z,13.40
2018-07-04T01:39:48.864Z,13.40
2018-07-04T01:42:28.318Z,13.40
2018-07-04T01:45:08.016Z,13.30
2018-07-04T01:47:47.726Z,13.30
2018-07-04T01:50:27.339Z,13.30
2018-07-04T01:53:07.760Z,13.30
2018-07-04T01:55:47.632Z,13.20
2018-07-04T01:58:27.412Z,13.10
2018-07-04T02:01:07.035Z,13.10
2018-07-04T02:03:46.691Z,13.10
2018-07-04T02:06:26.485Z,13.00
2018-07-04T02:09:06.187Z,12.90
2018-07-04T02:11:45.702Z,12.90
2018-07-04T02:14:25.544Z,12.90
2018-07-04T02:17:05.370Z,12.80
2018-07-04T02:19:45.186Z,12.80
2018-07-04T02:22:24.894Z,12.80
2018-07-04T02:25:04.751Z,12.80
2018-07-04T02:27:44.803Z,12.70
2018-07-04T02:30:24.315Z,12.70
2018-07-04T02:33:03.847Z,12.60
2018-07-04T02:35:43.512Z,12.50
2018-07-04T02:38:23.419Z,12.50
2018-07-04T02:41:03.184Z,12.50
2018-07-04T02:43:42.790Z,12.40
2018-07-04T02:46:28.370Z,12.30
2018-07-04T02:49:08.291Z,12.30
2018-07-04T02:51:48.008Z,12.30
2018-07-04T02:54:27.769Z,12.20
2018-07-04T02:57:07.493Z,12.20
2018-07-04T02:59:47.254Z,12.20
2018-07-04T03:02:27.030Z,12.20
2018-07-04T03:05:06.500Z,12.10
2018-07-04T03:07:45.940Z,12.10
2018-07-04T03:10:25.560Z,12.10
2018-07-04T03:13:05.194Z,12.10
2018-07-04T03:15:45.137Z,12.10
2018-07-04T03:18:24.862Z,12.10
2018-07-04T03:21:04.730Z,12.10
2018-07-04T03:23:44.300Z,12.00
2018-07-04T03:26:23.983Z,12.00
2018-07-04T03:29:03.658Z,12.10
2018-07-04T03:31:43.502Z,12.10
2018-07-04T03:34:23.255Z,12.00
2018-07-04T03:37:02.880Z,12.00
2018-07-04T03:39:42.478Z,12.00
2018-07-04T03:42:22.340Z,12.00
2018-07-04T03:45:02.084Z,12.00
2018-07-04T03:47:41.791Z,12.00
2018-07-04T03:50:21.378Z,12.10
2018-07-04T03:53:01.178Z,12.10
2018-07-04T03:55:41.010Z,12.10
2018-07-04T03:58:20.714Z,12.20
2018-07-04T04:01:00.419Z,12.20
2018-07-04T04:03:39.874Z,12.30
2018-07-04T04:06:19.503Z,12.40
2018-07-04T04:08:59.239Z,12.40
2018-07-04T04:11:38.783Z,12.50
2018-07-04T04:14:18.456Z,12.60
2018-07-04T04:16:58.183Z,12.70
2018-07-04T04:19:37.620Z,12.70
2018-07-04T04:22:17.140Z,12.80
2018-07-04T04:24:56.843Z,12.90
2018-07-04T04:27:36.514Z,13.00
2018-07-04T04:30:16.400Z,13.10
2018-07-04T04:32:56.152Z,13.20
2018-07-04T04:35:35.976Z,13.30
2018-07-04T04:38:15.644Z,13.40
2018-07-04T04:40:55.336Z,13.50
2018-07-04T04:43:35.037Z,13.60
2018-07-04T04:46:15.856Z,13.60
2018-07-04T04:48:55.496Z,13.70
2018-07-04T04:51:35.279Z,13.80
2018-07-04T04:54:15.015Z,13.90
2018-07-04T04:56:54.892Z,14.00
2018-07-04T04:59:34.532Z,14.20
2018-07-04T05:02:14.205Z,14.30
2018-07-04T05:04:53.863Z,14.50
2018-07-04T05:07:33.433Z,14.80
2018-07-04T05:10:13.080Z,15.00
2018-07-04T05:12:52.733Z,15.20
2018-07-04T05:15:32.389Z,15.50
2018-07-04T05:18:12.011Z,15.70
2018-07-04T05:20:51.571Z,15.90
2018-07-04T05:23:31.159Z,16.10
2018-07-04T05:26:10.787Z,16.30
2018-07-04T05:28:50.467Z,16.40
2018-07-04T05:31:30.093Z,16.60
2018-07-04T05:34:09.831Z,16.70
2018-07-04T05:36:49.248Z,16.80
2018-07-04T05:39:28.985Z,17.00
2018-07-04T05:42:08.583Z,17.10
2018-07-04T05:44:48.222Z,17.30
2018-07-04T05:47:27.710Z,17.50
2018-07-04T05:50:07.144Z,17.80
2018-07-04T05:52:46.759Z,18.00
2018-07-04T05:55:26.464Z,18.10
2018-07-04T05:58:06.060Z,18.30
2018-07-04T06:00:45.676Z,18.60
2018-07-04T06:03:25.275Z,18.70
2018-07-04T06:06:04.954Z,19.00
2018-07-04T06:08:44.499Z,19.30
2018-07-04T06:11:24.155Z,19.60
2018-07-04T06:14:03.819Z,19.80
2018-07-04T06:16:43.358Z,20.10
2018-07-04T06:19:23.051Z,20.20
2018-07-04T06:22:02.663Z,20.30
2018-07-04T06:24:42.259Z,20.60
2018-07-04T06:27:21.831Z,20.80
2018-07-04T06:30:01.312Z,21.00
2018-07-04T06:32:40.908Z,21.10
2018-07-04T06:35:20.490Z,21.20
2018-07-04T06:37:47.762Z,20.90
2018-07-04T06:40:15.029Z,20.90
2018-07-04T06:42:42.278Z,20.90
2018-07-04T06:45:09.608Z,21.40
2018-07-04T06:47:36.879Z,21.60
2018-07-04T06:50:04.164Z,21.80
2018-07-04T06:52:31.435Z,22.10
2018-07-04T06:54:58.702Z,22.20
2018-07-04T06:57:25.984Z,22.40
2018-07-04T06:59:53.252Z,22.20
2018-07-04T07:02:21.176Z,22.30
2018-07-04T07:05:02.153Z,22.50
2018-07-04T07:07:41.790Z,22.80
2018-07-04T07:10:21.542Z,23.10
2018-07-04T07:13:01.144Z,23.40
2018-07-04T07:15:41.031Z,23.60
2018-07-04T07:18:20.584Z,23.70
2018-07-04T07:21:00.568Z,24.10
2018-07-04T07:23:40.171Z,24.30
2018-07-04T07:26:19.898Z,24.60
2018-07-04T07:28:59.448Z,24.90
2018-07-04T07:31:39.179Z,25.20
2018-07-04T07:34:19.399Z,25.30
2018-07-04T07:36:59.258Z,25.40
2018-07-04T07:39:39.011Z,25.20
2018-07-04T07:42:18.688Z,25.50
2018-07-04T07:44:58.365Z,25.90
2018-07-04T07:47:38.099Z,26.00
2018-07-04T07:50:17.839Z,26.50
2018-07-04T07:52:57.671Z,26.70
2018-07-04T07:55:37.466Z,26.80
2018-07-04T07:58:17.207Z,26.90
2018-07-04T08:00:56.873Z,27.00
2018-07-04T08:03:36.607Z,27.20
2018-07-04T08:06:16.248Z,27.50
2018-07-04T08:08:55.908Z,27.70
2018-07-04T08:11:35.507Z,27.40
2018-07-04T08:14:15.116Z,27.60
2018-07-04T08:16:54.651Z,27.80
2018-07-04T08:19:34.068Z,28.10
2018-07-04T08:22:13.729Z,28.20
2018-07-04T08:24:53.331Z,28.20
2018-07-04T08:27:33.035Z,28.20
2018-07-04T08:30:12.520Z,28.10
2018-07-04T08:32:52.052Z,28.40
2018-07-04T08:35:31.453Z,28.70
2018-07-04T08:38:11.034Z,28.90
2018-07-04T08:40:50.530Z,28.90
2018-07-04T08:43:31.087Z,28.90
2018-07-04T08:46:10.525Z,29.20
2018-07-04T08:48:50.020Z,29.20
2018-07-04T08:51:29.499Z,29.50
2018-07-04T08:54:09.111Z,30.10
2018-07-04T08:56:48.749Z,30.30
2018-07-04T08:59:28.333Z,30.60
2018-07-04T09:02:07.900Z,30.70
2018-07-04T09:04:47.463Z,30.60
2018-07-04T09:07:27.197Z,30.60
2018-07-04T09:10:06.823Z,30.00
2018-07-04T09:12:46.415Z,30.10
2018-07-04T09:15:25.892Z,30.20
2018-07-04T09:18:05.611Z,30.40
2018-07-04T09:20:45.191Z,30.60
2018-07-04T09:23:24.600Z,30.80
2018-07-04T09:26:04.187Z,30.90
2018-07-04T09:28:43.708Z,31.10
2018-07-04T09:31:23.251Z,31.40
2018-07-04T09:34:02.709Z,31.30
2018-07-04T09:36:42.388Z,31.60
2018-07-04T09:39:22.001Z,31.70
2018-07-04T09:42:01.570Z,31.60
2018-07-04T09:44:41.071Z,31.90
2018-07-04T09:47:20.539Z,31.70
2018-07-04T09:49:59.949Z,32.00
2018-07-04T09:52:39.567Z,32.20
2018-07-04T09:55:19.140Z,32.60
2018-07-04T09:57:59.026Z,32.80
2018-07-04T10:00:43.834Z,32.80
2018-07-04T10:03:23.484Z,33.10
2018-07-04T10:06:03.107Z,33.20
2018-07-04T10:08:42.706Z,33.50
2018-07-04T10:11:22.257Z,33.80
2018-07-04T10:14:01.693Z,33.70
2018-07-04T10:16:41.266Z,33.90
2018-07-04T10:19:20.894Z,34.10
2018-07-04T10:22:00.460Z,34.10
2018-07-04T10:24:41.603Z,34.00
2018-07-04T10:27:21.259Z,33.80
2018-07-04T10:30:00.951Z,34.10
2018-07-04T10:32:40.648Z,34.40
2018-07-04T10:35:20.316Z,34.10
2018-07-04T10:37:59.858Z,34.00
2018-07-04T10:40:39.482Z,34.00
2018-07-04T10:43:18.931Z,34.10
2018-07-04T10:45:58.521Z,34.20
2018-07-04T10:48:38.170Z,34.30
2018-07-04T10:51:17.793Z,34.40
2018-07-04T10:53:57.446Z,34.30
2018-07-04T10:56:37.123Z,34.50
2018-07-04T10:59:16.575Z,34.80
2018-07-04T11:01:56.252Z,35.20
2018-07-04T11:04:37.258Z,35.20
2018-07-04T11:07:16.782Z,35.10
2018-07-04T11:09:56.401Z,35.10
2018-07-04T11:12:36.119Z,34.90
2018-07-04T11:15:15.644Z,35.10
2018-07-04T11:17:55.506Z,35.20
2018-07-04T11:20:35.303Z,35.40
2018-07-04T11:23:14.778Z,35.40
2018-07-04T11:25:54.544Z,35.70
2018-07-04T11:28:34.152Z,35.80
2018-07-04T11:31:13.841Z,35.90
2018-07-04T11:33:53.625Z,36.20
2018-07-04T11:36:33.378Z,36.30
2018-07-04T11:39:13.189Z,36.60
2018-07-04T11:41:52.940Z,36.40
2018-07-04T11:44:32.758Z,36.30
2018-07-04T11:47:00.201Z,36.20
2018-07-04T11:49:27.676Z,35.80
2018-07-04T11:51:55.050Z,36.00
2018-07-04T11:54:22.480Z,35.60
2018-07-04T11:56:49.960Z,35.60
2018-07-04T11:59:17.360Z,35.70
2018-07-04T12:01:44.813Z,35.80
2018-07-04T12:04:24.299Z,35.90
2018-07-04T12:07:02.751Z,36.30
2018-07-04T12:09:30.043Z,35.70
2018-07-04T12:11:57.491Z,35.50
2018-07-04T12:14:24.975Z,35.40
2018-07-04T12:16:52.361Z,35.60
2018-07-04T12:19:19.780Z,35.60
2018-07-04T12:21:47.411Z,35.40
2018-07-04T12:24:14.878Z,35.70
2018-07-04T12:26:42.268Z,36.10
2018-07-04T12:29:10.246Z,36.20
2018-07-04T12:31:37.704Z,36.00
2018-07-04T12:34:05.182Z,36.20
2018-07-04T12:36:32.900Z,35.10
2018-07-04T12:39:00.368Z,35.70
2018-07-04T12:41:28.050Z,35.80
2018-07-04T12:43:55.405Z,35.60
2018-07-04T12:46:22.835Z,35.70
2018-07-04T12:48:50.227Z,36.10
2018-07-04T12:51:17.609Z,36.50
2018-07-04T12:53:45.027Z,36.60
2018-07-04T12:56:24.624Z,36.60
2018-07-04T12:59:04.158Z,36.60
2018-07-04T13:01:44.153Z,36.60
2018-07-04T13:04:23.742Z,35.70
2018-07-04T13:07:03.357Z,35.80
2018-07-04T13:09:42.995Z,36.30
2018-07-04T13:12:22.605Z,36.60
2018-07-04T13:15:02.189Z,36.80
2018-07-04T13:17:41.920Z,36.60
2018-07-04T13:20:21.348Z,36.40
2018-07-04T13:23:00.935Z,36.90
2018-07-04T13:25:40.615Z,37.00
2018-07-04T13:28:20.497Z,37.20
2018-07-04T13:31:00.129Z,37.60
2018-07-04T13:33:39.699Z,37.80
2018-07-04T13:36:19.340Z,37.80
2018-07-04T13:38:58.919Z,37.40
2018-07-04T13:41:38.492Z,36.90
2018-07-04T13:44:17.940Z,37.10
2018-07-04T13:46:57.616Z,37.10
2018-07-04T13:49:37.196Z,36.90
2018-07-04T13:52:16.796Z,36.70
2018-07-04T13:54:56.461Z,36.50
2018-07-04T14:00:09.834Z,35.80
2018-07-04T14:02:49.511Z,36.10
2018-07-04T14:05:28.954Z,36.20
2018-07-04T14:08:08.641Z,36.00
2018-07-04T14:10:48.592Z,36.60
2018-07-04T14:13:28.394Z,36.90
2018-07-04T14:16:07.977Z,37.20
2018-07-04T14:18:47.587Z,37.30
2018-07-04T14:21:28.540Z,37.30
2018-07-04T14:24:08.696Z,37.50
2018-07-04T14:26:48.275Z,37.60
2018-07-04T14:29:28.223Z,37.00
2018-07-04T14:32:07.733Z,36.90
2018-07-04T14:34:47.122Z,36.90
2018-07-04T14:37:26.788Z,36.90
2018-07-04T14:40:06.797Z,36.80
2018-07-04T14:42:46.583Z,36.90
2018-07-04T14:45:26.116Z,36.90
2018-07-04T14:48:06.084Z,36.90
2018-07-04T14:50:45.695Z,36.60
2018-07-04T14:53:25.284Z,36.10
2018-07-04T14:56:05.835Z,36.30
2018-07-04T14:58:45.629Z,36.00
2018-07-04T15:01:25.207Z,36.30
2018-07-04T15:04:04.943Z,36.30
2018-07-04T15:06:44.490Z,36.50
2018-07-04T15:09:24.002Z,36.10
2018-07-04T15:12:03.976Z,35.00
2018-07-04T15:14:43.571Z,34.90
2018-07-04T15:17:24.095Z,34.40
2018-07-04T15:20:04.460Z,34.30
2018-07-04T15:22:44.337Z,34.10
2018-07-04T15:25:25.234Z,34.00
2018-07-04T15:28:05.071Z,33.90
2018-07-04T15:30:44.548Z,34.00
2018-07-04T15:33:24.026Z,34.00
2018-07-04T15:36:03.672Z,34.30
2018-07-04T15:38:43.334Z,34.40
2018-07-04T15:41:22.990Z,34.40
2018-07-04T15:44:03.584Z,34.30
2018-07-04T15:46:43.196Z,34.20
2018-07-04T15:49:22.828Z,34.00
2018-07-04T15:52:02.476Z,33.90
2018-07-04T15:54:42.337Z,33.90
2018-07-04T15:57:21.956Z,33.90
2018-07-04T16:00:01.659Z,33.70
2018-07-04T16:02:41.267Z,33.60
2018-07-04T16:05:21.078Z,33.50
2018-07-04T16:08:00.865Z,33.30
2018-07-04T16:10:40.585Z,33.00
2018-07-04T16:13:21.068Z,32.70
2018-07-04T16:16:00.561Z,32.60
2018-07-04T16:18:40.227Z,32.20
2018-07-04T16:21:19.928Z,31.90
2018-07-04T16:23:59.596Z,31.80
2018-07-04T16:26:39.296Z,31.50
2018-07-04T16:29:19.130Z,31.50
2018-07-04T16:31:58.747Z,31.40
2018-07-04T16:34:38.346Z,31.40
2018-07-04T16:37:18.102Z,31.40
2018-07-04T16:39:57.764Z,31.50
2018-07-04T16:42:37.380Z,31.60
2018-07-04T16:45:17.006Z,31.20
2018-07-04T16:47:56.569Z,31.10
2018-07-04T16:50:36.100Z,30.90
2018-07-04T16:53:15.594Z,30.80
2018-07-04T16:55:55.174Z,30.70
2018-07-04T16:58:34.942Z,30.60
2018-07-04T17:01:14.642Z,30.50
2018-07-04T17:03:54.266Z,30.40
2018-07-04T17:06:33.782Z,30.10
2018-07-04T17:09:13.510Z,29.80
2018-07-04T17:11:53.212Z,29.60
2018-07-04T17:14:32.847Z,29.60
2018-07-04T17:17:12.556Z,29.50
2018-07-04T17:19:52.001Z,29.50
2018-07-04T17:22:31.576Z,29.60
2018-07-04T17:25:11.317Z,29.60
2018-07-04T17:27:51.084Z,29.60
2018-07-04T17:33:04.252Z,29.50
2018-07-04T17:35:43.889Z,29.50
2018-07-04T17:38:23.378Z,29.50
2018-07-04T17:41:02.899Z,29.40
2018-07-04T17:43:42.647Z,29.40
2018-07-04T17:46:22.140Z,29.30
2018-07-04T17:49:02.607Z,29.30
2018-07-04T17:51:42.132Z,29.20
2018-07-04T17:54:21.668Z,29.10
2018-07-04T17:57:01.348Z,28.90
2018-07-04T17:59:41.090Z,28.90
2018-07-04T18:02:20.783Z,28.80
2018-07-04T18:05:00.670Z,28.70
2018-07-04T18:07:40.279Z,28.70
2018-07-04T18:10:19.997Z,28.60
2018-07-04T18:12:59.533Z,28.60
2018-07-04T18:15:39.238Z,28.70
2018-07-04T18:20:53.423Z,28.70
2018-07-04T18:23:33.150Z,28.70
2018-07-04T18:26:12.790Z,28.60
2018-07-04T18:28:53.274Z,28.50
2018-07-04T18:31:32.939Z,28.40
2018-07-04T18:34:12.868Z,28.30
2018-07-04T18:36:52.318Z,28.30
2018-07-04T18:39:32.107Z,28.20
2018-07-04T18:42:11.719Z,28.20
2018-07-04T18:44:51.354Z,28.10
2018-07-04T18:47:30.786Z,27.90
2018-07-04T18:50:10.613Z,27.80
2018-07-04T18:52:50.317Z,27.70
2018-07-04T18:55:30.064Z,27.60
2018-07-04T18:58:09.679Z,27.50
2018-07-04T19:00:49.513Z,27.40
2018-07-04T19:03:29.241Z,27.40
2018-07-04T19:06:08.669Z,27.20
2018-07-04T19:08:48.175Z,27.10
2018-07-04T19:11:27.786Z,27.00
2018-07-04T19:14:07.299Z,26.80
2018-07-04T19:16:46.986Z,26.70
2018-07-04T19:19:26.663Z,26.60
2018-07-04T19:22:06.387Z,26.50
2018-07-04T19:24:46.047Z,26.30
2018-07-04T19:27:25.485Z,26.20
2018-07-04T19:30:05.022Z,26.10
2018-07-04T19:32:44.568Z,26.00
2018-07-04T19:35:24.173Z,25.90
2018-07-04T19:38:03.687Z,25.80
2018-07-04T19:40:43.218Z,25.70
2018-07-04T19:43:22.784Z,25.60
2018-07-04T19:46:02.356Z,25.50
2018-07-04T19:48:41.918Z,25.40
2018-07-04T19:51:21.522Z,25.30
2018-07-04T19:54:01.037Z,25.10
2018-07-04T19:56:40.718Z,25.00
2018-07-04T19:59:20.226Z,24.80
2018-07-04T20:01:59.842Z,24.60
2018-07-04T20:04:39.296Z,24.40
2018-07-04T20:07:18.823Z,24.30
2018-07-04T20:09:58.353Z,24.10
2018-07-04T20:12:38.020Z,23.90
2018-07-04T20:15:17.674Z,23.80
2018-07-04T20:17:57.180Z,23.70
2018-07-04T20:20:36.906Z,23.60
2018-07-04T20:23:16.459Z,23.50
2018-07-04T20:25:56.126Z,23.50
2018-07-04T20:28:35.800Z,23.40
2018-07-04T20:33:48.892Z,23.30
2018-07-04T20:36:28.433Z,23.20
2018-07-04T20:39:07.984Z,23.10
2018-07-04T20:41:47.468Z,23.10
2018-07-04T20:44:27.159Z,23.00
2018-07-04T20:47:06.724Z,22.90
2018-07-04T20:49:46.233Z,22.80
2018-07-04T20:52:25.943Z,22.70
2018-07-04T20:55:05.580Z,22.60
2018-07-04T20:57:45.290Z,22.50
2018-07-04T21:00:25.100Z,22.40
2018-07-04T21:03:04.825Z,22.30
2018-07-04T21:05:44.319Z,22.20
2018-07-04T21:08:23.911Z,22.10
2018-07-04T21:11:03.332Z,22.10
2018-07-04T21:13:43.046Z,22.00
2018-07-04T21:16:22.844Z,21.90
2018-07-04T21:21:36.082Z,21.90
2018-07-04T21:24:15.595Z,21.90
2018-07-04T21:26:55.417Z,21.80
2018-07-04T21:29:35.038Z,21.80
2018-07-04T21:32:14.533Z,21.80
2018-07-04T21:34:54.180Z,21.80
2018-07-04T21:37:33.796Z,21.80
2018-07-04T21:40:13.504Z,21.60
2018-07-04T21:42:53.044Z,21.50
2018-07-04T21:45:32.604Z,21.40
2018-07-04T21:48:12.187Z,21.30
2018-07-04T21:50:51.820Z,21.20
2018-07-04T21:53:31.479Z,21.10
2018-07-04T21:56:11.166Z,21.00
2018-07-04T21:58:50.804Z,21.00
2018-07-04T22:01:32.238Z,20.90
2018-07-04T22:04:12.131Z,20.90
2018-07-04T22:06:51.604Z,20.80
2018-07-04T22:09:31.243Z,20.80
2018-07-04T22:12:10.864Z,20.70
2018-07-04T22:14:50.530Z,20.70
2018-07-04T22:20:03.712Z,20.60
2018-07-04T22:22:43.271Z,20.50
2018-07-04T22:25:22.995Z,20.50
2018-07-04T22:28:02.682Z,20.40
2018-07-04T22:30:42.344Z,20.30
2018-07-04T22:33:22.055Z,20.30
2018-07-04T22:36:01.645Z,20.20
2018-07-04T22:38:41.242Z,20.10
2018-07-04T22:41:20.865Z,20.00
2018-07-04T22:44:00.507Z,20.00
2018-07-04T22:46:40.033Z,19.90
2018-07-04T22:49:19.574Z,19.90
2018-07-04T22:51:59.836Z,19.80
2018-07-04T22:54:39.772Z,19.80
2018-07-04T22:57:20.227Z,19.70
2018-07-04T23:00:00.200Z,19.70
2018-07-04T23:02:40.048Z,19.70
2018-07-04T23:05:19.588Z,19.60
2018-07-04T23:07:59.071Z,19.60
2018-07-04T23:10:38.864Z,19.50
2018-07-04T23:13:18.342Z,19.50
2018-07-04T23:15:58.064Z,19.40
2018-07-04T23:18:37.696Z,19.30
2018-07-04T23:21:17.430Z,19.30
2018-07-04T23:23:56.979Z,19.30
2018-07-04T23:26:36.613Z,19.20
2018-07-04T23:29:16.718Z,19.20
2018-07-04T23:31:56.270Z,19.10
2018-07-04T23:34:35.870Z,19.10
2018-07-04T23:37:15.416Z,19.00
2018-07-04T23:39:54.905Z,18.90
2018-07-04T23:42:34.655Z,18.90
2018-07-04T23:45:14.136Z,18.80
2018-07-04T23:47:53.760Z,18.80
2018-07-04T23:50:33.487Z,18.70
2018-07-04T23:53:13.099Z,18.70
2018-07-04T23:55:52.704Z,18.60
2018-07-04T23:58:32.208Z,18.60
